Amarillo, TX (79111)

5:58 PM CDT on April 25, 2017 (GMT -0500)
Amarillo International | | Change Station

Elev 3606 ft 35.22 °N, 101.71 °W | Updated 5 minutes ago

Partly Cloudy
Partly Cloudy
75 °F
Feels Like 75 °F
N
24
Wind Variable Wind from WSW
Gusts 34 mph

Today
High -- | Low -- °F
--% Chance of Precip.
Yesterday
High -- | Low -- °F
Precip. -- in
Pressure 29.31 in
Visibility 10.0 miles
Clouds Few 12000 ft
Dew Point 36 °F
Humidity 24%
Rainfall 0.00 in
Snow Depth Not available.
7:01 AM 8:27 PM
Waning Crescent, 0% visible
METAR KAMA 252253Z 24021G30KT 10SM FEW120 24/02 A2946 RMK AO2 PK WND 23030/2248 SLP925 T02390022
Pressure 29.31 in
Visibility 10.0 miles
Clouds Few 12000 ft
Dew Point 36 °F
Humidity 24%
Rainfall 0.00 in
Snow Depth Not available.
7:01 AM 8:27 PM
Waning Crescent, 0% visible
METAR KAMA 252253Z 24021G30KT 10SM FEW120 24/02 A2946 RMK AO2 PK WND 23030/2248 SLP925 T02390022

Get Severe Weather Alerts

Thanks for signing up!

Be on the lookout for a verification email in your inbox.

You'll start receiving the daily forecast at 8 AM.

×

10-Day Weather Forecast

Almanac

Astronomy

Apr. 25, 2017 Rise Set
Actual Time
Civil Twilight
Nautical Twilight
Astronomical Twilight
Moon
Length of Visible Light
Length of Day
Tomorrow will be .
, % of the Moon is Illuminated

Today's Extremes

State Highs State Lows

Community

WunderPhotos

WunderBlog® & News

Nearby

Air Quality

  Air Quality AQ Index Pollutant
Not available.

Snow Depth

Station Depth Elevation

Earthquake Activity

City Distance Mag. Time & Date
Minimum magnitude displayed is 2.5.

Coastal Water Temperatures

Place Temperature

Stations

Nearby Weather Stations

Station Location Temp. Windchill Dew Point Humidity Wind Precip. Elev Updated Type
                   

Watches & Warnings

There are currently no watches in effect.